sensor_id;sensor_type;location;lat;lon;timestamp;P1;durP1;ratioP1;P2;durP2;ratioP2
40707;SDS011;26392;42.696;23.350;2023-03-01T00:00:39;6.07;;;3.40;;
40707;SDS011;26392;42.696;23.350;2023-03-01T00:03:05;8.50;;;3.55;;
40707;SDS011;26392;42.696;23.350;2023-03-01T00:05:31;5.63;;;3.28;;
40707;SDS011;26392;42.696;23.350;2023-03-01T00:07:57;5.03;;;3.05;;
40707;SDS011;26392;42.696;23.350;2023-03-01T00:10:22;7.35;;;3.90;;
40707;SDS011;26392;42.696;23.350;2023-03-01T00:12:47;5.60;;;3.25;;
40707;SDS011;26392;42.696;23.350;2023-03-01T00:15:13;5.50;;;3.47;;
40707;SDS011;26392;42.696;23.350;2023-03-01T00:17:38;4.50;;;2.80;;
40707;SDS011;26392;42.696;23.350;2023-03-01T00:20:04;3.28;;;2.22;;
40707;SDS011;26392;42.696;23.350;2023-03-01T00:22:35;6.72;;;2.50;;
40707;SDS011;26392;42.696;23.350;2023-03-01T00:25:01;4.05;;;2.17;;
40707;SDS011;26392;42.696;23.350;2023-03-01T00:27:26;3.88;;;2.25;;
40707;SDS011;26392;42.696;23.350;2023-03-01T00:29:51;6.78;;;2.35;;
40707;SDS011;26392;42.696;23.350;2023-03-01T00:35:01;4.95;;;2.55;;
40707;SDS011;26392;42.696;23.350;2023-03-01T00:37:26;5.90;;;2.47;;
40707;SDS011;26392;42.696;23.350;2023-03-01T00:39:51;6.30;;;2.88;;
40707;SDS011;26392;42.696;23.350;2023-03-01T00:42:17;3.67;;;2.35;;
40707;SDS011;26392;42.696;23.350;2023-03-01T00:44:42;4.90;;;2.42;;
40707;SDS011;26392;42.696;23.350;2023-03-01T00:47:08;4.78;;;2.33;;
40707;SDS011;26392;42.696;23.350;2023-03-01T00:49:34;5.05;;;2.67;;
40707;SDS011;26392;42.696;23.350;2023-03-01T00:51:59;3.78;;;2.17;;
40707;SDS011;26392;42.696;23.350;2023-03-01T00:54:24;4.82;;;2.95;;
40707;SDS011;26392;42.696;23.350;2023-03-01T00:56:50;3.00;;;2.28;;
40707;SDS011;26392;42.696;23.350;2023-03-01T00:59:15;3.70;;;2.38;;
40707;SDS011;26392;42.696;23.350;2023-03-01T01:01:41;4.18;;;2.25;;
40707;SDS011;26392;42.696;23.350;2023-03-01T01:04:08;3.80;;;2.33;;
40707;SDS011;26392;42.696;23.350;2023-03-01T01:06:36;4.80;;;2.65;;
40707;SDS011;26392;42.696;23.350;2023-03-01T01:09:04;3.90;;;2.60;;
40707;SDS011;26392;42.696;23.350;2023-03-01T01:11:31;4.25;;;2.30;;
40707;SDS011;26392;42.696;23.350;2023-03-01T01:13:57;5.38;;;2.33;;
40707;SDS011;26392;42.696;23.350;2023-03-01T01:16:24;3.60;;;2.40;;
40707;SDS011;26392;42.696;23.350;2023-03-01T01:18:51;4.03;;;2.17;;
40707;SDS011;26392;42.696;23.350;2023-03-01T01:21:18;3.17;;;2.30;;
40707;SDS011;26392;42.696;23.350;2023-03-01T01:23:45;4.50;;;2.70;;
40707;SDS011;26392;42.696;23.350;2023-03-01T01:26:13;5.53;;;2.75;;
40707;SDS011;26392;42.696;23.350;2023-03-01T01:28:41;3.38;;;2.15;;
40707;SDS011;26392;42.696;23.350;2023-03-01T01:31:06;5.60;;;2.55;;
40707;SDS011;26392;42.696;23.350;2023-03-01T01:33:32;4.38;;;2.65;;
40707;SDS011;26392;42.696;23.350;2023-03-01T01:35:58;4.07;;;2.60;;
40707;SDS011;26392;42.696;23.350;2023-03-01T01:38:23;4.15;;;2.42;;
40707;SDS011;26392;42.696;23.350;2023-03-01T01:40:49;3.05;;;2.20;;
40707;SDS011;26392;42.696;23.350;2023-03-01T01:43:26;4.80;;;2.58;;
40707;SDS011;26392;42.696;23.350;2023-03-01T01:48:40;3.85;;;2.50;;
40707;SDS011;26392;42.696;23.350;2023-03-01T01:51:13;3.65;;;2.60;;
40707;SDS011;26392;42.696;23.350;2023-03-01T01:53:43;3.88;;;2.33;;
40707;SDS011;26392;42.696;23.350;2023-03-01T01:56:11;3.40;;;1.85;;
40707;SDS011;26392;42.696;23.350;2023-03-01T01:58:38;2.35;;;1.80;;
40707;SDS011;26392;42.696;23.350;2023-03-01T02:01:06;2.67;;;1.60;;
40707;SDS011;26392;42.696;23.350;2023-03-01T02:03:32;2.22;;;1.50;;
40707;SDS011;26392;42.696;23.350;2023-03-01T02:09:06;2.42;;;1.92;;
40707;SDS011;26392;42.696;23.350;2023-03-01T02:11:40;2.60;;;1.60;;
40707;SDS011;26392;42.696;23.350;2023-03-01T02:14:07;3.53;;;2.13;;
40707;SDS011;26392;42.696;23.350;2023-03-01T02:16:32;2.20;;;1.58;;
40707;SDS011;26392;42.696;23.350;2023-03-01T02:18:58;2.75;;;1.50;;
40707;SDS011;26392;42.696;23.350;2023-03-01T02:24:45;4.03;;;2.00;;
40707;SDS011;26392;42.696;23.350;2023-03-01T02:27:13;3.90;;;1.58;;
40707;SDS011;26392;42.696;23.350;2023-03-01T02:29:38;2.15;;;1.50;;
40707;SDS011;26392;42.696;23.350;2023-03-01T02:32:04;2.03;;;1.60;;
40707;SDS011;26392;42.696;23.350;2023-03-01T02:34:30;2.90;;;2.03;;
40707;SDS011;26392;42.696;23.350;2023-03-01T02:37:02;2.92;;;1.92;;
40707;SDS011;26392;42.696;23.350;2023-03-01T02:39:34;3.33;;;2.40;;
40707;SDS011;26392;42.696;23.350;2023-03-01T02:42:07;2.95;;;1.98;;
40707;SDS011;26392;42.696;23.350;2023-03-01T02:44:39;2.72;;;1.95;;
40707;SDS011;26392;42.696;23.350;2023-03-01T02:47:05;4.00;;;2.30;;
40707;SDS011;26392;42.696;23.350;2023-03-01T02:49:32;4.75;;;2.33;;
40707;SDS011;26392;42.696;23.350;2023-03-01T02:57:36;4.80;;;1.73;;
40707;SDS011;26392;42.696;23.350;2023-03-01T03:00:09;2.42;;;1.75;;
40707;SDS011;26392;42.696;23.350;2023-03-01T03:02:44;5.50;;;2.17;;
40707;SDS011;26392;42.696;23.350;2023-03-01T03:05:12;2.75;;;1.88;;
40707;SDS011;26392;42.696;23.350;2023-03-01T03:08:04;4.55;;;2.03;;
40707;SDS011;26392;42.696;23.350;2023-03-01T03:10:30;3.25;;;1.70;;
40707;SDS011;26392;42.696;23.350;2023-03-01T03:13:05;4.00;;;2.13;;
40707;SDS011;26392;42.696;23.350;2023-03-01T03:15:37;3.50;;;2.15;;
40707;SDS011;26392;42.696;23.350;2023-03-01T03:18:05;3.63;;;2.45;;
40707;SDS011;26392;42.696;23.350;2023-03-01T03:20:32;3.67;;;2.50;;
40707;SDS011;26392;42.696;23.350;2023-03-01T03:22:58;9.55;;;2.60;;
40707;SDS011;26392;42.696;23.350;2023-03-01T03:25:24;3.80;;;2.42;;
40707;SDS011;26392;42.696;23.350;2023-03-01T03:27:51;3.40;;;2.10;;
40707;SDS011;26392;42.696;23.350;2023-03-01T03:30:26;3.53;;;2.45;;
40707;SDS011;26392;42.696;23.350;2023-03-01T03:32:54;5.30;;;2.15;;
40707;SDS011;26392;42.696;23.350;2023-03-01T03:35:23;5.95;;;2.42;;
40707;SDS011;26392;42.696;23.350;2023-03-01T03:37:51;6.85;;;2.30;;
40707;SDS011;26392;42.696;23.350;2023-03-01T03:40:26;3.78;;;2.28;;
40707;SDS011;26392;42.696;23.350;2023-03-01T03:42:57;4.43;;;2.50;;
40707;SDS011;26392;42.696;23.350;2023-03-01T03:48:08;7.05;;;2.78;;
40707;SDS011;26392;42.696;23.350;2023-03-01T03:50:35;5.03;;;2.50;;
40707;SDS011;26392;42.696;23.350;2023-03-01T03:53:03;4.60;;;3.00;;
40707;SDS011;26392;42.696;23.350;2023-03-01T03:55:30;4.38;;;2.50;;
40707;SDS011;26392;42.696;23.350;2023-03-01T03:57:56;4.47;;;2.63;;
40707;SDS011;26392;42.696;23.350;2023-03-01T04:00:25;6.13;;;3.80;;
40707;SDS011;26392;42.696;23.350;2023-03-01T04:02:51;7.15;;;3.33;;
40707;SDS011;26392;42.696;23.350;2023-03-01T04:05:17;6.10;;;2.97;;
40707;SDS011;26392;42.696;23.350;2023-03-01T04:07:44;9.07;;;2.75;;
40707;SDS011;26392;42.696;23.350;2023-03-01T04:10:12;4.78;;;2.80;;
40707;SDS011;26392;42.696;23.350;2023-03-01T04:12:39;7.35;;;3.47;;
40707;SDS011;26392;42.696;23.350;2023-03-01T04:15:05;5.32;;;2.97;;
40707;SDS011;26392;42.696;23.350;2023-03-01T04:17:41;4.05;;;2.75;;
40707;SDS011;26392;42.696;23.350;2023-03-01T04:20:09;4.80;;;2.80;;
40707;SDS011;26392;42.696;23.350;2023-03-01T04:22:43;3.17;;;2.30;;
40707;SDS011;26392;42.696;23.350;2023-03-01T04:25:12;5.43;;;2.95;;
40707;SDS011;26392;42.696;23.350;2023-03-01T04:27:39;5.18;;;2.75;;
40707;SDS011;26392;42.696;23.350;2023-03-01T04:30:05;4.65;;;2.75;;
40707;SDS011;26392;42.696;23.350;2023-03-01T04:32:31;3.10;;;2.28;;
40707;SDS011;26392;42.696;23.350;2023-03-01T04:34:56;6.85;;;2.50;;
40707;SDS011;26392;42.696;23.350;2023-03-01T04:37:22;4.10;;;2.30;;
40707;SDS011;26392;42.696;23.350;2023-03-01T04:39:48;4.90;;;2.33;;
40707;SDS011;26392;42.696;23.350;2023-03-01T04:42:14;3.92;;;2.47;;
40707;SDS011;26392;42.696;23.350;2023-03-01T04:44:41;3.47;;;2.50;;
40707;SDS011;26392;42.696;23.350;2023-03-01T04:47:07;6.10;;;2.88;;
40707;SDS011;26392;42.696;23.350;2023-03-01T04:49:33;7.15;;;3.25;;
40707;SDS011;26392;42.696;23.350;2023-03-01T04:51:58;5.38;;;2.50;;
40707;SDS011;26392;42.696;23.350;2023-03-01T04:54:27;4.18;;;2.55;;
40707;SDS011;26392;42.696;23.350;2023-03-01T04:56:53;4.85;;;3.17;;
40707;SDS011;26392;42.696;23.350;2023-03-01T04:59:18;5.85;;;3.70;;
40707;SDS011;26392;42.696;23.350;2023-03-01T05:01:47;7.45;;;3.75;;
40707;SDS011;26392;42.696;23.350;2023-03-01T05:04:16;5.70;;;3.72;;
40707;SDS011;26392;42.696;23.350;2023-03-01T05:06:42;6.13;;;3.58;;
40707;SDS011;26392;42.696;23.350;2023-03-01T05:09:08;6.18;;;3.58;;
40707;SDS011;26392;42.696;23.350;2023-03-01T05:11:33;8.85;;;3.47;;
40707;SDS011;26392;42.696;23.350;2023-03-01T05:14:04;8.90;;;3.83;;
40707;SDS011;26392;42.696;23.350;2023-03-01T05:16:31;10.75;;;4.15;;
40707;SDS011;26392;42.696;23.350;2023-03-01T05:18:57;5.90;;;3.53;;
40707;SDS011;26392;42.696;23.350;2023-03-01T05:21:23;8.18;;;4.13;;
40707;SDS011;26392;42.696;23.350;2023-03-01T05:23:48;7.32;;;4.10;;
40707;SDS011;26392;42.696;23.350;2023-03-01T05:26:14;6.47;;;3.80;;
40707;SDS011;26392;42.696;23.350;2023-03-01T05:28:42;6.38;;;3.83;;
40707;SDS011;26392;42.696;23.350;2023-03-01T05:31:08;9.48;;;4.38;;
40707;SDS011;26392;42.696;23.350;2023-03-01T05:33:37;3.85;;;3.15;;
40707;SDS011;26392;42.696;23.350;2023-03-01T05:36:04;8.93;;;4.00;;
40707;SDS011;26392;42.696;23.350;2023-03-01T05:38:31;7.15;;;3.88;;
40707;SDS011;26392;42.696;23.350;2023-03-01T05:40:56;8.05;;;4.15;;
40707;SDS011;26392;42.696;23.350;2023-03-01T05:43:22;8.30;;;3.88;;
40707;SDS011;26392;42.696;23.350;2023-03-01T05:45:47;9.38;;;4.35;;
40707;SDS011;26392;42.696;23.350;2023-03-01T05:48:13;5.57;;;3.25;;
40707;SDS011;26392;42.696;23.350;2023-03-01T05:50:43;6.00;;;3.42;;
40707;SDS011;26392;42.696;23.350;2023-03-01T05:53:10;5.68;;;3.50;;
40707;SDS011;26392;42.696;23.350;2023-03-01T05:55:37;6.15;;;3.40;;
40707;SDS011;26392;42.696;23.350;2023-03-01T05:58:05;5.05;;;3.15;;
40707;SDS011;26392;42.696;23.350;2023-03-01T06:00:32;6.03;;;3.45;;
40707;SDS011;26392;42.696;23.350;2023-03-01T06:02:59;8.00;;;3.75;;
40707;SDS011;26392;42.696;23.350;2023-03-01T06:05:25;8.25;;;4.00;;
40707;SDS011;26392;42.696;23.350;2023-03-01T06:07:51;8.75;;;4.38;;
40707;SDS011;26392;42.696;23.350;2023-03-01T06:10:18;11.75;;;4.85;;
40707;SDS011;26392;42.696;23.350;2023-03-01T06:12:45;8.27;;;4.25;;
40707;SDS011;26392;42.696;23.350;2023-03-01T06:15:12;9.50;;;4.13;;
40707;SDS011;26392;42.696;23.350;2023-03-01T06:17:39;10.05;;;3.88;;
40707;SDS011;26392;42.696;23.350;2023-03-01T06:20:07;6.47;;;3.28;;
40707;SDS011;26392;42.696;23.350;2023-03-01T06:22:35;5.68;;;3.05;;
40707;SDS011;26392;42.696;23.350;2023-03-01T06:25:01;6.93;;;3.65;;
40707;SDS011;26392;42.696;23.350;2023-03-01T06:27:26;6.15;;;3.33;;
40707;SDS011;26392;42.696;23.350;2023-03-01T06:29:51;7.13;;;3.95;;
40707;SDS011;26392;42.696;23.350;2023-03-01T06:32:17;12.77;;;4.28;;
40707;SDS011;26392;42.696;23.350;2023-03-01T06:34:42;6.70;;;3.50;;
40707;SDS011;26392;42.696;23.350;2023-03-01T06:37:08;4.97;;;2.65;;
40707;SDS011;26392;42.696;23.350;2023-03-01T06:39:33;3.72;;;2.58;;
40707;SDS011;26392;42.696;23.350;2023-03-01T06:41:59;4.82;;;2.53;;
40707;SDS011;26392;42.696;23.350;2023-03-01T06:44:25;7.22;;;3.20;;
40707;SDS011;26392;42.696;23.350;2023-03-01T06:46:50;7.65;;;3.20;;
40707;SDS011;26392;42.696;23.350;2023-03-01T06:49:16;5.85;;;3.30;;
40707;SDS011;26392;42.696;23.350;2023-03-01T06:51:43;4.38;;;2.72;;
40707;SDS011;26392;42.696;23.350;2023-03-01T06:54:09;5.40;;;3.10;;
40707;SDS011;26392;42.696;23.350;2023-03-01T06:56:34;6.38;;;3.17;;
40707;SDS011;26392;42.696;23.350;2023-03-01T06:59:00;8.70;;;3.22;;
40707;SDS011;26392;42.696;23.350;2023-03-01T07:01:27;8.60;;;3.22;;
40707;SDS011;26392;42.696;23.350;2023-03-01T07:03:53;6.47;;;2.65;;
40707;SDS011;26392;42.696;23.350;2023-03-01T07:06:18;6.75;;;2.95;;
40707;SDS011;26392;42.696;23.350;2023-03-01T07:08:44;5.72;;;2.60;;
40707;SDS011;26392;42.696;23.350;2023-03-01T07:11:09;6.93;;;3.20;;
40707;SDS011;26392;42.696;23.350;2023-03-01T07:13:35;7.40;;;3.00;;
40707;SDS011;26392;42.696;23.350;2023-03-01T07:16:00;4.45;;;2.80;;
40707;SDS011;26392;42.696;23.350;2023-03-01T07:18:26;7.30;;;3.58;;
40707;SDS011;26392;42.696;23.350;2023-03-01T07:20:51;11.20;;;3.75;;
40707;SDS011;26392;42.696;23.350;2023-03-01T07:23:17;7.90;;;3.08;;
40707;SDS011;26392;42.696;23.350;2023-03-01T07:25:42;7.00;;;3.33;;
40707;SDS011;26392;42.696;23.350;2023-03-01T07:28:08;6.00;;;3.05;;
40707;SDS011;26392;42.696;23.350;2023-03-01T07:30:33;8.10;;;2.90;;
40707;SDS011;26392;42.696;23.350;2023-03-01T07:32:59;8.52;;;2.85;;
40707;SDS011;26392;42.696;23.350;2023-03-01T07:35:25;7.32;;;3.47;;
40707;SDS011;26392;42.696;23.350;2023-03-01T07:37:52;8.63;;;4.03;;
40707;SDS011;26392;42.696;23.350;2023-03-01T07:40:18;13.32;;;3.63;;
40707;SDS011;26392;42.696;23.350;2023-03-01T07:42:43;13.10;;;4.30;;
40707;SDS011;26392;42.696;23.350;2023-03-01T07:45:09;15.63;;;4.60;;
40707;SDS011;26392;42.696;23.350;2023-03-01T07:47:35;6.97;;;3.80;;
40707;SDS011;26392;42.696;23.350;2023-03-01T07:50:00;7.00;;;3.53;;
40707;SDS011;26392;42.696;23.350;2023-03-01T07:52:26;9.40;;;3.65;;
40707;SDS011;26392;42.696;23.350;2023-03-01T07:54:52;7.10;;;3.35;;
40707;SDS011;26392;42.696;23.350;2023-03-01T07:57:17;7.43;;;3.25;;
40707;SDS011;26392;42.696;23.350;2023-03-01T07:59:43;7.85;;;2.83;;
40707;SDS011;26392;42.696;23.350;2023-03-01T08:02:09;14.25;;;3.35;;
40707;SDS011;26392;42.696;23.350;2023-03-01T08:04:35;11.93;;;4.20;;
40707;SDS011;26392;42.696;23.350;2023-03-01T08:07:01;9.63;;;2.75;;
40707;SDS011;26392;42.696;23.350;2023-03-01T08:09:26;10.70;;;4.15;;
40707;SDS011;26392;42.696;23.350;2023-03-01T08:11:51;8.45;;;3.20;;
40707;SDS011;26392;42.696;23.350;2023-03-01T08:14:17;6.70;;;3.15;;
40707;SDS011;26392;42.696;23.350;2023-03-01T08:16:42;8.20;;;2.58;;
40707;SDS011;26392;42.696;23.350;2023-03-01T08:19:09;12.45;;;2.92;;
40707;SDS011;26392;42.696;23.350;2023-03-01T08:21:36;7.03;;;2.85;;
40707;SDS011;26392;42.696;23.350;2023-03-01T08:24:03;6.50;;;2.63;;
40707;SDS011;26392;42.696;23.350;2023-03-01T08:26:31;5.90;;;2.25;;
40707;SDS011;26392;42.696;23.350;2023-03-01T08:28:57;6.50;;;2.50;;
40707;SDS011;26392;42.696;23.350;2023-03-01T08:31:24;5.65;;;3.28;;
40707;SDS011;26392;42.696;23.350;2023-03-01T08:33:56;6.70;;;2.70;;
40707;SDS011;26392;42.696;23.350;2023-03-01T08:36:24;3.70;;;1.92;;
40707;SDS011;26392;42.696;23.350;2023-03-01T08:38:51;4.32;;;2.45;;
40707;SDS011;26392;42.696;23.350;2023-03-01T08:41:18;3.22;;;2.10;;
40707;SDS011;26392;42.696;23.350;2023-03-01T08:43:44;3.72;;;2.42;;
40707;SDS011;26392;42.696;23.350;2023-03-01T08:46:10;5.53;;;2.33;;
40707;SDS011;26392;42.696;23.350;2023-03-01T08:48:36;4.53;;;2.70;;
40707;SDS011;26392;42.696;23.350;2023-03-01T08:51:11;4.53;;;3.13;;
40707;SDS011;26392;42.696;23.350;2023-03-01T08:53:41;5.05;;;2.65;;
40707;SDS011;26392;42.696;23.350;2023-03-01T08:56:07;3.60;;;2.63;;
40707;SDS011;26392;42.696;23.350;2023-03-01T08:58:33;4.50;;;2.30;;
40707;SDS011;26392;42.696;23.350;2023-03-01T09:00:59;3.63;;;2.28;;
40707;SDS011;26392;42.696;23.350;2023-03-01T09:03:25;6.25;;;2.53;;
40707;SDS011;26392;42.696;23.350;2023-03-01T09:05:51;6.50;;;2.15;;
40707;SDS011;26392;42.696;23.350;2023-03-01T09:08:17;3.88;;;2.38;;
40707;SDS011;26392;42.696;23.350;2023-03-01T09:10:43;4.97;;;2.00;;
40707;SDS011;26392;42.696;23.350;2023-03-01T09:13:09;3.13;;;2.20;;
40707;SDS011;26392;42.696;23.350;2023-03-01T09:15:38;5.45;;;2.08;;
40707;SDS011;26392;42.696;23.350;2023-03-01T09:18:04;7.30;;;2.40;;
40707;SDS011;26392;42.696;23.350;2023-03-01T09:20:30;5.10;;;1.90;;
40707;SDS011;26392;42.696;23.350;2023-03-01T09:22:56;4.07;;;2.45;;
40707;SDS011;26392;42.696;23.350;2023-03-01T09:25:22;6.55;;;2.35;;
40707;SDS011;26392;42.696;23.350;2023-03-01T09:27:50;7.57;;;2.65;;
40707;SDS011;26392;42.696;23.350;2023-03-01T09:30:16;2.95;;;1.90;;
40707;SDS011;26392;42.696;23.350;2023-03-01T09:32:42;5.78;;;2.00;;
40707;SDS011;26392;42.696;23.350;2023-03-01T09:35:09;2.47;;;1.40;;
40707;SDS011;26392;42.696;23.350;2023-03-01T09:37:35;4.35;;;2.20;;
40707;SDS011;26392;42.696;23.350;2023-03-01T09:40:03;4.32;;;1.77;;
40707;SDS011;26392;42.696;23.350;2023-03-01T09:42:31;5.80;;;2.40;;
40707;SDS011;26392;42.696;23.350;2023-03-01T09:45:04;5.25;;;2.30;;
40707;SDS011;26392;42.696;23.350;2023-03-01T09:47:36;5.57;;;2.20;;
40707;SDS011;26392;42.696;23.350;2023-03-01T09:50:04;5.35;;;2.38;;
40707;SDS011;26392;42.696;23.350;2023-03-01T09:55:16;4.85;;;2.63;;
40707;SDS011;26392;42.696;23.350;2023-03-01T09:57:55;3.40;;;1.88;;
40707;SDS011;26392;42.696;23.350;2023-03-01T10:00:42;2.95;;;1.98;;
40707;SDS011;26392;42.696;23.350;2023-03-01T10:06:03;4.68;;;2.08;;
40707;SDS011;26392;42.696;23.350;2023-03-01T10:11:19;3.78;;;2.20;;
40707;SDS011;26392;42.696;23.350;2023-03-01T10:14:01;7.75;;;2.17;;
40707;SDS011;26392;42.696;23.350;2023-03-01T10:24:41;3.33;;;1.95;;
40707;SDS011;26392;42.696;23.350;2023-03-01T10:27:17;5.10;;;2.13;;
40707;SDS011;26392;42.696;23.350;2023-03-01T10:32:16;3.10;;;2.03;;
40707;SDS011;26392;42.696;23.350;2023-03-01T10:34:43;4.88;;;1.73;;
40707;SDS011;26392;42.696;23.350;2023-03-01T10:37:13;2.90;;;1.65;;
40707;SDS011;26392;42.696;23.350;2023-03-01T10:39:56;3.20;;;1.65;;
40707;SDS011;26392;42.696;23.350;2023-03-01T10:42:34;4.32;;;2.00;;
40707;SDS011;26392;42.696;23.350;2023-03-01T10:51:03;5.38;;;1.70;;
40707;SDS011;26392;42.696;23.350;2023-03-01T10:53:35;3.80;;;1.48;;
40707;SDS011;26392;42.696;23.350;2023-03-01T10:56:09;1.77;;;0.93;;
40707;SDS011;26392;42.696;23.350;2023-03-01T10:58:38;2.80;;;0.98;;
40707;SDS011;26392;42.696;23.350;2023-03-01T11:01:09;1.85;;;1.40;;
40707;SDS011;26392;42.696;23.350;2023-03-01T11:06:32;2.35;;;1.58;;
40707;SDS011;26392;42.696;23.350;2023-03-01T11:09:14;1.73;;;1.20;;
40707;SDS011;26392;42.696;23.350;2023-03-01T11:11:41;3.53;;;1.77;;
40707;SDS011;26392;42.696;23.350;2023-03-01T11:14:15;3.95;;;1.60;;
40707;SDS011;26392;42.696;23.350;2023-03-01T11:19:25;1.88;;;1.10;;
40707;SDS011;26392;42.696;23.350;2023-03-01T11:24:33;4.80;;;1.58;;
40707;SDS011;26392;42.696;23.350;2023-03-01T11:27:04;5.57;;;1.90;;
40707;SDS011;26392;42.696;23.350;2023-03-01T11:29:50;3.15;;;1.75;;
40707;SDS011;26392;42.696;23.350;2023-03-01T11:32:22;2.78;;;1.77;;
40707;SDS011;26392;42.696;23.350;2023-03-01T11:35:03;3.22;;;1.40;;
40707;SDS011;26392;42.696;23.350;2023-03-01T11:37:44;3.45;;;1.10;;
40707;SDS011;26392;42.696;23.350;2023-03-01T11:40:37;6.00;;;1.90;;
40707;SDS011;26392;42.696;23.350;2023-03-01T11:43:33;9.02;;;1.60;;
40707;SDS011;26392;42.696;23.350;2023-03-01T11:56:42;2.03;;;1.50;;
40707;SDS011;26392;42.696;23.350;2023-03-01T12:10:44;7.18;;;1.70;;
40707;SDS011;26392;42.696;23.350;2023-03-01T12:21:49;7.55;;;2.40;;
40707;SDS011;26392;42.696;23.350;2023-03-01T12:41:43;4.90;;;2.17;;
40707;SDS011;26392;42.696;23.350;2023-03-01T12:44:49;6.90;;;2.10;;
40707;SDS011;26392;42.696;23.350;2023-03-01T12:50:24;4.50;;;2.38;;
40707;SDS011;26392;42.696;23.350;2023-03-01T12:52:57;11.05;;;2.88;;
40707;SDS011;26392;42.696;23.350;2023-03-01T12:55:29;4.88;;;2.08;;
40707;SDS011;26392;42.696;23.350;2023-03-01T13:00:39;9.73;;;2.70;;
40707;SDS011;26392;42.696;23.350;2023-03-01T13:06:47;3.97;;;1.70;;
40707;SDS011;26392;42.696;23.350;2023-03-01T13:09:20;3.55;;;1.80;;
40707;SDS011;26392;42.696;23.350;2023-03-01T13:11:48;3.60;;;1.73;;
40707;SDS011;26392;42.696;23.350;2023-03-01T13:16:45;7.63;;;2.08;;
40707;SDS011;26392;42.696;23.350;2023-03-01T13:21:45;5.22;;;2.50;;
40707;SDS011;26392;42.696;23.350;2023-03-01T13:24:27;5.65;;;3.38;;
40707;SDS011;26392;42.696;23.350;2023-03-01T13:29:50;3.85;;;2.42;;
40707;SDS011;26392;42.696;23.350;2023-03-01T13:32:31;13.63;;;2.60;;
40707;SDS011;26392;42.696;23.350;2023-03-01T13:34:59;9.60;;;2.78;;
40707;SDS011;26392;42.696;23.350;2023-03-01T13:37:33;11.93;;;2.72;;
40707;SDS011;26392;42.696;23.350;2023-03-01T13:40:03;5.78;;;2.95;;
40707;SDS011;26392;42.696;23.350;2023-03-01T13:42:55;5.97;;;2.88;;
40707;SDS011;26392;42.696;23.350;2023-03-01T13:45:23;6.93;;;2.60;;
40707;SDS011;26392;42.696;23.350;2023-03-01T13:47:52;5.75;;;3.08;;
40707;SDS011;26392;42.696;23.350;2023-03-01T13:50:23;6.55;;;3.28;;
40707;SDS011;26392;42.696;23.350;2023-03-01T13:52:53;6.32;;;2.38;;
40707;SDS011;26392;42.696;23.350;2023-03-01T14:00:40;6.00;;;2.60;;
40707;SDS011;26392;42.696;23.350;2023-03-01T14:05:37;7.75;;;3.25;;
40707;SDS011;26392;42.696;23.350;2023-03-01T14:08:04;10.68;;;3.47;;
40707;SDS011;26392;42.696;23.350;2023-03-01T14:10:45;5.90;;;2.42;;
40707;SDS011;26392;42.696;23.350;2023-03-01T14:21:17;5.88;;;3.33;;
40707;SDS011;26392;42.696;23.350;2023-03-01T14:23:43;4.35;;;2.33;;
40707;SDS011;26392;42.696;23.350;2023-03-01T14:26:08;10.07;;;3.17;;
40707;SDS011;26392;42.696;23.350;2023-03-01T14:28:37;5.28;;;2.72;;
40707;SDS011;26392;42.696;23.350;2023-03-01T14:31:25;5.93;;;3.15;;
40707;SDS011;26392;42.696;23.350;2023-03-01T14:34:02;7.50;;;3.88;;
40707;SDS011;26392;42.696;23.350;2023-03-01T14:36:29;8.30;;;3.83;;
40707;SDS011;26392;42.696;23.350;2023-03-01T14:38:56;6.60;;;3.22;;
40707;SDS011;26392;42.696;23.350;2023-03-01T14:41:30;4.30;;;2.65;;
40707;SDS011;26392;42.696;23.350;2023-03-01T14:44:01;4.55;;;2.40;;
40707;SDS011;26392;42.696;23.350;2023-03-01T14:48:58;4.95;;;2.78;;
40707;SDS011;26392;42.696;23.350;2023-03-01T14:51:28;7.35;;;2.55;;
40707;SDS011;26392;42.696;23.350;2023-03-01T14:53:54;5.22;;;2.90;;
40707;SDS011;26392;42.696;23.350;2023-03-01T14:56:21;7.35;;;2.83;;
40707;SDS011;26392;42.696;23.350;2023-03-01T14:58:46;10.82;;;3.45;;
40707;SDS011;26392;42.696;23.350;2023-03-01T15:01:16;7.43;;;3.53;;
40707;SDS011;26392;42.696;23.350;2023-03-01T15:03:44;10.00;;;3.67;;
40707;SDS011;26392;42.696;23.350;2023-03-01T15:06:14;8.55;;;4.18;;
40707;SDS011;26392;42.696;23.350;2023-03-01T15:08:44;12.30;;;4.03;;
40707;SDS011;26392;42.696;23.350;2023-03-01T15:13:52;9.93;;;3.80;;
40707;SDS011;26392;42.696;23.350;2023-03-01T15:16:20;13.48;;;4.55;;
40707;SDS011;26392;42.696;23.350;2023-03-01T15:18:57;9.98;;;4.07;;
40707;SDS011;26392;42.696;23.350;2023-03-01T15:23:54;8.70;;;3.97;;
40707;SDS011;26392;42.696;23.350;2023-03-01T15:26:28;12.18;;;4.00;;
40707;SDS011;26392;42.696;23.350;2023-03-01T15:28:57;11.52;;;4.90;;
40707;SDS011;26392;42.696;23.350;2023-03-01T15:31:25;12.45;;;3.63;;
40707;SDS011;26392;42.696;23.350;2023-03-01T15:34:06;14.15;;;3.97;;
40707;SDS011;26392;42.696;23.350;2023-03-01T15:42:02;10.82;;;4.22;;
40707;SDS011;26392;42.696;23.350;2023-03-01T15:45:10;15.48;;;4.70;;
40707;SDS011;26392;42.696;23.350;2023-03-01T15:47:36;10.05;;;4.10;;
40707;SDS011;26392;42.696;23.350;2023-03-01T15:50:05;13.90;;;4.22;;
40707;SDS011;26392;42.696;23.350;2023-03-01T15:52:40;9.07;;;4.43;;
40707;SDS011;26392;42.696;23.350;2023-03-01T15:55:18;8.68;;;4.55;;
40707;SDS011;26392;42.696;23.350;2023-03-01T15:57:46;11.32;;;5.03;;
40707;SDS011;26392;42.696;23.350;2023-03-01T16:00:12;16.45;;;5.20;;
40707;SDS011;26392;42.696;23.350;2023-03-01T16:02:39;14.52;;;5.32;;
40707;SDS011;26392;42.696;23.350;2023-03-01T16:05:05;14.57;;;5.75;;
40707;SDS011;26392;42.696;23.350;2023-03-01T16:07:41;13.50;;;5.63;;
40707;SDS011;26392;42.696;23.350;2023-03-01T16:10:06;11.07;;;4.90;;
40707;SDS011;26392;42.696;23.350;2023-03-01T16:12:32;11.05;;;5.00;;
40707;SDS011;26392;42.696;23.350;2023-03-01T16:14:57;13.20;;;4.95;;
40707;SDS011;26392;42.696;23.350;2023-03-01T16:17:23;13.57;;;5.15;;
40707;SDS011;26392;42.696;23.350;2023-03-01T16:19:48;12.23;;;5.22;;
40707;SDS011;26392;42.696;23.350;2023-03-01T16:22:14;14.13;;;5.38;;
40707;SDS011;26392;42.696;23.350;2023-03-01T16:24:39;10.85;;;5.15;;
40707;SDS011;26392;42.696;23.350;2023-03-01T16:27:06;12.70;;;4.53;;
40707;SDS011;26392;42.696;23.350;2023-03-01T16:29:32;10.07;;;4.80;;
40707;SDS011;26392;42.696;23.350;2023-03-01T16:31:59;12.48;;;5.25;;
40707;SDS011;26392;42.696;23.350;2023-03-01T16:34:26;11.05;;;4.72;;
40707;SDS011;26392;42.696;23.350;2023-03-01T16:36:51;14.10;;;4.95;;
40707;SDS011;26392;42.696;23.350;2023-03-01T16:39:17;14.85;;;5.60;;
40707;SDS011;26392;42.696;23.350;2023-03-01T16:41:42;13.88;;;5.72;;
40707;SDS011;26392;42.696;23.350;2023-03-01T16:44:08;12.35;;;5.65;;
40707;SDS011;26392;42.696;23.350;2023-03-01T16:46:33;12.23;;;5.10;;
40707;SDS011;26392;42.696;23.350;2023-03-01T16:48:59;13.38;;;5.82;;
40707;SDS011;26392;42.696;23.350;2023-03-01T16:51:24;13.32;;;6.28;;
40707;SDS011;26392;42.696;23.350;2023-03-01T16:53:50;20.23;;;7.07;;
40707;SDS011;26392;42.696;23.350;2023-03-01T16:56:17;20.33;;;6.85;;
40707;SDS011;26392;42.696;23.350;2023-03-01T16:58:43;16.80;;;6.22;;
40707;SDS011;26392;42.696;23.350;2023-03-01T17:01:13;15.05;;;6.22;;
40707;SDS011;26392;42.696;23.350;2023-03-01T17:03:41;15.10;;;7.07;;
40707;SDS011;26392;42.696;23.350;2023-03-01T17:06:08;20.20;;;7.28;;
40707;SDS011;26392;42.696;23.350;2023-03-01T17:08:35;19.52;;;7.65;;